createdAt,value
2018-03-11T00:00:28.889Z,12.50
2018-03-11T00:02:56.893Z,12.50
2018-03-11T00:05:25.147Z,12.40
2018-03-11T00:07:54.192Z,12.40
2018-03-11T00:10:22.441Z,12.40
2018-03-11T00:12:51.502Z,12.40
2018-03-11T00:15:19.827Z,12.40
2018-03-11T00:17:48.907Z,12.30
2018-03-11T00:20:17.123Z,12.30
2018-03-11T00:22:45.398Z,12.30
2018-03-11T00:25:13.654Z,12.30
2018-03-11T00:27:42.709Z,12.40
2018-03-11T00:30:10.975Z,12.40
2018-03-11T00:32:39.246Z,12.40
2018-03-11T00:35:08.637Z,12.40
2018-03-11T00:37:37.680Z,12.30
2018-03-11T00:40:05.939Z,12.30
2018-03-11T00:42:34.220Z,12.40
2018-03-11T00:45:03.245Z,12.40
2018-03-11T00:47:31.517Z,12.40
2018-03-11T00:49:59.786Z,12.40
2018-03-11T00:52:28.059Z,12.30
2018-03-11T00:54:56.325Z,12.30
2018-03-11T00:57:24.605Z,12.30
2018-03-11T00:59:53.624Z,12.30
2018-03-11T01:02:21.910Z,12.30
2018-03-11T01:04:50.173Z,12.30
2018-03-11T01:07:18.432Z,12.20
2018-03-11T01:09:48.209Z,12.20
2018-03-11T01:12:16.482Z,12.20
2018-03-11T01:14:44.758Z,12.20
2018-03-11T01:17:13.046Z,12.20
2018-03-11T01:19:41.328Z,12.10
2018-03-11T01:22:09.577Z,12.10
2018-03-11T01:24:37.876Z,12.00
2018-03-11T01:27:06.132Z,11.90
2018-03-11T01:29:34.408Z,11.90
2018-03-11T01:32:03.428Z,11.80
2018-03-11T01:34:31.702Z,11.80
2018-03-11T01:36:59.957Z,11.90
2018-03-11T01:39:29.005Z,11.80
2018-03-11T01:41:57.324Z,11.80
2018-03-11T01:44:25.614Z,11.80
2018-03-11T01:46:54.642Z,11.70
2018-03-11T01:49:22.951Z,11.70
2018-03-11T01:51:51.410Z,11.70
2018-03-11T01:54:20.435Z,11.70
2018-03-11T01:56:48.708Z,11.70
2018-03-11T01:59:16.975Z,11.70
2018-03-11T02:01:45.233Z,11.60
2018-03-11T02:04:14.313Z,11.60
2018-03-11T02:06:42.599Z,11.50
2018-03-11T02:09:10.838Z,11.50
2018-03-11T02:11:39.135Z,11.50
2018-03-11T02:14:07.384Z,11.50
2018-03-11T02:16:35.697Z,11.40
2018-03-11T02:19:03.943Z,11.50
2018-03-11T02:21:32.219Z,11.40
2018-03-11T02:24:00.491Z,11.40
2018-03-11T02:26:29.530Z,11.30
2018-03-11T02:28:57.813Z,11.30
2018-03-11T02:31:26.087Z,11.40
2018-03-11T02:33:54.358Z,11.50
2018-03-11T02:36:22.637Z,11.50
2018-03-11T02:38:50.890Z,11.50
2018-03-11T02:41:19.955Z,11.50
2018-03-11T02:43:48.217Z,11.40
2018-03-11T02:46:16.492Z,11.50
2018-03-11T02:48:44.778Z,11.50
2018-03-11T02:51:13.032Z,11.50
2018-03-11T02:53:41.297Z,11.50
2018-03-11T02:56:10.338Z,11.40
2018-03-11T02:58:38.598Z,11.40
2018-03-11T03:01:06.861Z,11.40
2018-03-11T03:03:35.897Z,11.40
2018-03-11T03:06:04.163Z,11.40
2018-03-11T03:08:34.220Z,11.40
2018-03-11T03:11:02.478Z,11.40
2018-03-11T03:13:30.761Z,11.40
2018-03-11T03:15:59.032Z,11.40
2018-03-11T03:18:27.283Z,11.40
2018-03-11T03:20:56.318Z,11.40
2018-03-11T03:23:24.606Z,11.40
2018-03-11T03:25:52.871Z,11.40
2018-03-11T03:28:21.165Z,11.40
2018-03-11T03:30:49.430Z,11.30
2018-03-11T03:33:17.716Z,11.30
2018-03-11T03:35:45.969Z,11.20
2018-03-11T03:38:15.010Z,11.10
2018-03-11T03:40:43.469Z,11.10
2018-03-11T03:43:12.171Z,11.10
2018-03-11T03:45:40.445Z,11.00
2018-03-11T03:48:08.726Z,11.00
2018-03-11T03:50:36.979Z,10.90
2018-03-11T03:53:06.046Z,10.90
2018-03-11T03:55:34.287Z,10.90
2018-03-11T03:58:02.572Z,10.90
2018-03-11T04:00:30.816Z,10.90
2018-03-11T04:02:59.095Z,10.80
2018-03-11T04:05:27.364Z,10.80
2018-03-11T04:07:55.641Z,10.80
2018-03-11T04:10:23.909Z,10.80
2018-03-11T04:12:52.167Z,10.90
2018-03-11T04:15:20.440Z,10.80
2018-03-11T04:17:48.692Z,10.80
2018-03-11T04:20:16.970Z,10.80
2018-03-11T04:22:45.228Z,10.80
2018-03-11T04:25:13.536Z,10.90
2018-03-11T04:27:41.813Z,10.80
2018-03-11T04:30:10.191Z,10.90
2018-03-11T04:32:38.468Z,10.90
2018-03-11T04:35:06.847Z,10.90
2018-03-11T04:37:35.123Z,11.00
2018-03-11T04:40:03.501Z,11.00
2018-03-11T04:42:31.779Z,10.90
2018-03-11T04:45:00.115Z,10.90
2018-03-11T04:47:28.433Z,10.90
2018-03-11T04:49:57.018Z,11.00
2018-03-11T04:52:25.294Z,10.90
2018-03-11T04:54:53.822Z,11.00
2018-03-11T04:57:22.072Z,10.90
2018-03-11T04:59:50.362Z,10.90
2018-03-11T05:02:18.644Z,11.00
2018-03-11T05:04:46.901Z,11.00
2018-03-11T05:07:15.184Z,11.00
2018-03-11T05:09:43.440Z,11.00
2018-03-11T05:12:11.778Z,11.00
2018-03-11T05:14:40.037Z,11.00
2018-03-11T05:17:08.426Z,10.90
2018-03-11T05:19:36.677Z,11.00
2018-03-11T05:22:04.949Z,10.90
2018-03-11T05:24:33.223Z,10.90
2018-03-11T05:27:02.301Z,10.90
2018-03-11T05:29:30.565Z,10.80
2018-03-11T05:31:58.837Z,10.80
2018-03-11T05:34:27.144Z,10.70
2018-03-11T05:36:55.426Z,10.70
2018-03-11T05:39:23.689Z,10.80
2018-03-11T05:41:51.977Z,10.80
2018-03-11T05:44:20.234Z,10.80
2018-03-11T05:46:48.495Z,10.80
2018-03-11T05:49:16.831Z,10.80
2018-03-11T05:51:45.117Z,10.80
2018-03-11T05:54:13.405Z,10.70
2018-03-11T05:56:42.431Z,10.70
2018-03-11T05:59:10.704Z,10.70
2018-03-11T06:01:39.731Z,10.80
2018-03-11T06:04:08.018Z,10.70
2018-03-11T06:06:36.278Z,10.80
2018-03-11T06:09:04.573Z,10.80
2018-03-11T06:11:32.856Z,10.80
2018-03-11T06:14:01.165Z,10.90
2018-03-11T06:16:29.441Z,11.00
2018-03-11T06:18:57.753Z,11.00
2018-03-11T06:21:26.009Z,11.00
2018-03-11T06:23:54.279Z,11.10
2018-03-11T06:26:22.538Z,11.10
2018-03-11T06:28:50.808Z,11.20
2018-03-11T06:31:19.818Z,11.30
2018-03-11T06:33:48.099Z,11.30
2018-03-11T06:36:16.373Z,11.30
2018-03-11T06:38:45.411Z,11.40
2018-03-11T06:41:13.661Z,11.40
2018-03-11T06:43:41.920Z,11.50
2018-03-11T06:46:11.783Z,11.40
2018-03-11T06:48:40.822Z,11.50
2018-03-11T06:51:09.860Z,11.60
2018-03-11T06:53:38.111Z,11.60
2018-03-11T06:56:07.147Z,12.00
2018-03-11T06:58:35.427Z,11.90
2018-03-11T07:01:03.711Z,12.00
2018-03-11T07:03:31.971Z,12.10
2018-03-11T07:06:00.270Z,12.10
2018-03-11T07:08:28.643Z,12.20
2018-03-11T07:10:56.928Z,12.20
2018-03-11T07:13:25.193Z,12.30
2018-03-11T07:15:54.233Z,12.30
2018-03-11T07:18:22.508Z,12.30
2018-03-11T07:20:50.774Z,12.40
2018-03-11T07:23:19.090Z,12.40
2018-03-11T07:25:47.374Z,12.70
2018-03-11T07:28:15.724Z,13.10
2018-03-11T07:30:44.001Z,13.90
2018-03-11T07:33:12.257Z,14.90
2018-03-11T07:35:41.272Z,17.10
2018-03-11T07:38:09.541Z,17.10
2018-03-11T07:40:38.550Z,19.10
2018-03-11T07:43:06.821Z,19.10
2018-03-11T07:45:35.881Z,20.50
2018-03-11T07:48:04.158Z,20.40
2018-03-11T07:50:32.440Z,20.00
2018-03-11T07:53:00.727Z,19.70
2018-03-11T07:55:28.994Z,19.20
2018-03-11T07:57:57.275Z,18.80
2018-03-11T08:00:25.527Z,18.40
2018-03-11T08:02:54.557Z,17.60
2018-03-11T08:05:23.121Z,17.50
2018-03-11T08:07:51.385Z,17.20
2018-03-11T08:10:19.645Z,16.90
2018-03-11T08:12:47.946Z,16.80
2018-03-11T08:15:16.223Z,17.30
2018-03-11T08:17:44.835Z,18.00
2018-03-11T08:20:13.093Z,18.70
2018-03-11T08:22:42.101Z,19.70
2018-03-11T08:25:10.379Z,19.70
2018-03-11T08:27:38.621Z,20.60
2018-03-11T08:30:06.897Z,21.20
2018-03-11T08:32:35.149Z,21.20
2018-03-11T08:35:03.431Z,21.00
2018-03-11T08:37:31.696Z,20.70
2018-03-11T08:39:59.990Z,20.30
2018-03-11T08:42:28.262Z,19.90
2018-03-11T08:44:56.523Z,19.60
2018-03-11T08:47:24.773Z,19.30
2018-03-11T08:49:53.034Z,19.10
2018-03-11T08:52:21.286Z,18.80
2018-03-11T08:54:49.550Z,18.60
2018-03-11T08:57:17.800Z,18.40
2018-03-11T08:59:46.060Z,18.40
2018-03-11T09:02:14.302Z,18.30
2018-03-11T09:04:42.570Z,18.30
2018-03-11T09:07:10.815Z,18.10
2018-03-11T09:09:39.069Z,17.90
2018-03-11T09:12:07.315Z,17.70
2018-03-11T09:14:36.332Z,17.30
2018-03-11T09:17:04.593Z,17.30
2018-03-11T09:19:32.847Z,17.20
2018-03-11T09:22:01.904Z,16.90
2018-03-11T09:24:36.323Z,16.90
2018-03-11T09:27:12.496Z,16.90
2018-03-11T09:29:40.733Z,16.90
2018-03-11T09:32:09.832Z,16.80
2018-03-11T09:34:46.428Z,16.60
2018-03-11T09:37:14.907Z,16.60
2018-03-11T09:39:45.446Z,16.40
2018-03-11T09:42:17.477Z,16.40
2018-03-11T09:44:49.929Z,16.10
2018-03-11T09:47:18.882Z,16.10
2018-03-11T09:49:47.878Z,16.20
2018-03-11T09:52:18.540Z,16.20
2018-03-11T09:54:48.177Z,16.20
2018-03-11T09:57:18.707Z,16.20
2018-03-11T09:59:47.026Z,16.20
2018-03-11T10:02:15.288Z,16.20
2018-03-11T10:04:48.011Z,16.20
2018-03-11T10:07:20.659Z,16.20
2018-03-11T10:09:48.977Z,16.20
2018-03-11T10:12:17.327Z,16.20
2018-03-11T10:14:47.118Z,16.20
2018-03-11T10:17:15.429Z,16.10
2018-03-11T10:19:43.688Z,16.20
2018-03-11T10:22:11.972Z,16.10
2018-03-11T10:24:40.431Z,16.10
2018-03-11T10:27:08.837Z,16.10
2018-03-11T10:29:37.526Z,16.10
2018-03-11T10:32:06.616Z,16.10
2018-03-11T10:34:34.979Z,16.10
2018-03-11T10:37:03.282Z,16.00
2018-03-11T10:39:32.033Z,16.00
2018-03-11T10:42:01.063Z,16.10
2018-03-11T10:44:29.338Z,16.10
2018-03-11T10:46:57.618Z,16.20
2018-03-11T10:49:25.934Z,16.30
2018-03-11T10:51:54.195Z,16.40
2018-03-11T10:54:22.452Z,16.50
2018-03-11T10:56:50.700Z,16.50
2018-03-11T10:59:18.959Z,16.40
2018-03-11T11:01:53.036Z,16.40
2018-03-11T11:04:21.289Z,16.30
2018-03-11T11:06:50.501Z,16.20
2018-03-11T11:09:19.463Z,16.20
2018-03-11T11:11:48.055Z,16.10
2018-03-11T11:14:16.770Z,16.10
2018-03-11T11:16:45.773Z,15.80
2018-03-11T11:19:14.803Z,15.80
2018-03-11T11:21:43.098Z,15.80
2018-03-11T11:24:11.355Z,15.80
2018-03-11T11:26:39.598Z,15.90
2018-03-11T11:29:09.383Z,15.70
2018-03-11T11:31:37.640Z,15.80
2018-03-11T11:34:05.902Z,15.80
2018-03-11T11:36:34.927Z,15.70
2018-03-11T11:39:03.207Z,15.70
2018-03-11T11:41:31.632Z,15.60
2018-03-11T11:43:59.962Z,15.50
2018-03-11T11:46:29.930Z,15.50
2018-03-11T11:48:58.769Z,15.40
2018-03-11T11:51:28.676Z,15.40
2018-03-11T11:53:57.752Z,15.40
2018-03-11T11:56:26.240Z,15.40
2018-03-11T11:58:55.322Z,15.60
2018-03-11T12:01:23.928Z,15.60
2018-03-11T12:03:53.232Z,15.90
2018-03-11T12:06:22.466Z,16.00
2018-03-11T12:08:51.037Z,16.00
2018-03-11T12:11:19.511Z,16.30
2018-03-11T12:13:48.300Z,16.40
2018-03-11T12:16:17.810Z,16.50
2018-03-11T12:18:47.090Z,16.50
2018-03-11T12:21:15.644Z,16.50
2018-03-11T12:23:44.195Z,16.60
2018-03-11T12:26:12.886Z,16.50
2018-03-11T12:28:42.494Z,16.50
2018-03-11T12:31:10.913Z,16.60
2018-03-11T12:33:40.412Z,16.70
2018-03-11T12:36:09.286Z,16.60
2018-03-11T12:38:37.876Z,16.60
2018-03-11T12:41:06.566Z,16.60
2018-03-11T12:43:36.318Z,16.50
2018-03-11T12:46:05.345Z,16.50
2018-03-11T12:48:33.597Z,16.50
2018-03-11T12:51:03.469Z,16.50
2018-03-11T12:53:31.689Z,16.50
2018-03-11T12:55:59.957Z,16.40
2018-03-11T12:58:28.306Z,16.50
2018-03-11T13:00:56.551Z,16.40
2018-03-11T13:03:24.824Z,16.30
2018-03-11T13:05:53.828Z,16.20
2018-03-11T13:08:22.158Z,16.20
2018-03-11T13:10:50.870Z,16.00
2018-03-11T13:13:19.355Z,15.90
2018-03-11T13:15:47.919Z,15.80
2018-03-11T13:18:17.444Z,15.50
2018-03-11T13:20:57.764Z,15.60
2018-03-11T13:23:26.400Z,15.60
2018-03-11T13:25:55.601Z,15.40
2018-03-11T13:28:36.173Z,15.40
2018-03-11T13:31:05.262Z,15.40
2018-03-11T13:33:45.484Z,15.40
2018-03-11T13:36:14.503Z,15.30
2018-03-11T13:38:54.700Z,15.30
2018-03-11T13:41:24.064Z,15.40
2018-03-11T13:43:52.303Z,15.40
2018-03-11T13:46:33.281Z,15.70
2018-03-11T13:49:02.304Z,15.90
2018-03-11T13:51:42.600Z,15.90
2018-03-11T13:54:10.843Z,16.00
2018-03-11T13:56:39.863Z,16.40
2018-03-11T13:59:08.128Z,16.40
2018-03-11T14:01:36.372Z,16.50
2018-03-11T14:04:04.629Z,16.70
2018-03-11T14:06:32.936Z,16.70
2018-03-11T14:09:01.621Z,16.70
2018-03-11T14:11:30.773Z,16.60
2018-03-11T14:13:59.614Z,16.60
2018-03-11T14:16:28.609Z,16.60
2018-03-11T14:18:57.838Z,16.60
2018-03-11T14:21:27.219Z,16.60
2018-03-11T14:23:56.758Z,16.60
2018-03-11T14:26:25.330Z,16.50
2018-03-11T14:28:54.143Z,16.70
2018-03-11T14:31:22.472Z,16.60
2018-03-11T14:33:52.321Z,16.70
2018-03-11T14:36:21.937Z,16.70
2018-03-11T14:38:50.231Z,16.60
2018-03-11T14:41:18.486Z,16.80
2018-03-11T14:43:46.731Z,16.80
2018-03-11T14:46:14.982Z,16.80
2018-03-11T14:48:44.005Z,16.70
2018-03-11T14:51:12.252Z,16.70
2018-03-11T14:53:40.517Z,16.60
2018-03-11T14:56:08.757Z,16.50
2018-03-11T14:58:37.044Z,16.30
2018-03-11T15:01:05.309Z,16.30
2018-03-11T15:03:33.573Z,16.30
2018-03-11T15:06:02.610Z,16.20
2018-03-11T15:08:30.866Z,16.20
2018-03-11T15:10:59.179Z,16.10
2018-03-11T15:13:27.480Z,16.00
2018-03-11T15:15:55.721Z,15.90
2018-03-11T15:18:24.836Z,15.80
2018-03-11T15:20:53.233Z,15.80
2018-03-11T15:23:21.617Z,15.90
2018-03-11T15:25:49.942Z,15.80
2018-03-11T15:28:18.299Z,15.70
2018-03-11T15:30:46.549Z,15.70
2018-03-11T15:33:14.810Z,15.70
2018-03-11T15:35:43.053Z,15.60
2018-03-11T15:38:12.092Z,15.70
2018-03-11T15:40:40.335Z,15.70
2018-03-11T15:43:08.626Z,15.60
2018-03-11T15:45:36.876Z,15.60
2018-03-11T15:48:05.142Z,15.50
2018-03-11T15:50:33.420Z,15.40
2018-03-11T15:53:01.741Z,15.50
2018-03-11T15:55:29.951Z,15.50
2018-03-11T15:57:58.944Z,15.50
2018-03-11T16:00:27.992Z,15.60
2018-03-11T16:02:56.525Z,15.60
2018-03-11T16:05:25.559Z,15.60
2018-03-11T16:07:54.757Z,15.60
2018-03-11T16:10:23.868Z,15.60
2018-03-11T16:12:52.115Z,15.50
2018-03-11T16:15:20.371Z,15.40
2018-03-11T16:17:48.613Z,15.40
2018-03-11T16:20:16.875Z,15.40
2018-03-11T16:22:45.124Z,15.40
2018-03-11T16:25:14.143Z,15.30
2018-03-11T16:27:42.395Z,15.40
2018-03-11T16:30:11.413Z,15.20
2018-03-11T16:32:39.665Z,15.20
2018-03-11T16:35:08.037Z,15.10
2018-03-11T16:37:36.259Z,15.00
2018-03-11T16:40:05.334Z,14.90
2018-03-11T16:42:33.542Z,15.00
2018-03-11T16:45:01.817Z,14.80
2018-03-11T16:47:30.856Z,14.80
2018-03-11T16:49:59.120Z,14.80
2018-03-11T16:52:27.394Z,14.80
2018-03-11T16:54:55.649Z,14.80
2018-03-11T16:57:23.898Z,14.80
2018-03-11T16:59:53.659Z,14.60
2018-03-11T17:02:22.664Z,14.40
2018-03-11T17:04:50.932Z,14.40
2018-03-11T17:07:19.931Z,14.30
2018-03-11T17:09:48.262Z,14.20
2018-03-11T17:12:16.508Z,14.30
2018-03-11T17:14:45.021Z,14.30
2018-03-11T17:17:14.059Z,14.30
2018-03-11T17:19:43.092Z,14.30
2018-03-11T17:22:11.340Z,14.30
2018-03-11T17:24:40.412Z,14.40
2018-03-11T17:27:08.656Z,14.40
2018-03-11T17:29:36.940Z,14.40
2018-03-11T17:32:05.250Z,14.30
2018-03-11T17:34:33.546Z,14.30
2018-03-11T17:37:01.782Z,14.40
2018-03-11T17:39:30.113Z,14.40
2018-03-11T17:41:58.422Z,14.40
2018-03-11T17:44:27.790Z,14.10
2018-03-11T17:46:56.032Z,14.10
2018-03-11T17:49:24.309Z,14.10
2018-03-11T17:51:52.552Z,14.10
2018-03-11T17:54:22.336Z,13.90
2018-03-11T17:56:50.659Z,13.90
2018-03-11T17:59:19.686Z,13.90
2018-03-11T18:01:47.927Z,13.90
2018-03-11T18:04:16.212Z,13.90
2018-03-11T18:06:46.332Z,13.90
2018-03-11T18:09:14.713Z,13.90
2018-03-11T18:11:44.491Z,14.00
2018-03-11T18:14:13.118Z,14.00
2018-03-11T18:16:43.402Z,14.10
2018-03-11T18:19:12.926Z,14.10
2018-03-11T18:21:41.161Z,14.10
2018-03-11T18:24:10.192Z,14.00
2018-03-11T18:26:38.436Z,14.00
2018-03-11T18:29:07.486Z,14.00
2018-03-11T18:31:35.739Z,14.00
2018-03-11T18:34:04.769Z,14.00
2018-03-11T18:36:33.022Z,14.00
2018-03-11T18:39:02.071Z,14.10
2018-03-11T18:41:30.338Z,14.00
2018-03-11T18:43:58.613Z,14.10
2018-03-11T18:46:26.888Z,14.10
2018-03-11T18:48:55.155Z,14.00
2018-03-11T18:51:23.401Z,14.00
2018-03-11T18:53:51.693Z,13.90
2018-03-11T18:56:20.710Z,13.80
2018-03-11T18:58:49.755Z,13.80
2018-03-11T19:01:18.017Z,13.70
2018-03-11T19:03:46.311Z,13.80
2018-03-11T19:06:14.550Z,13.70
2018-03-11T19:08:43.567Z,13.70
2018-03-11T19:11:11.834Z,13.70
2018-03-11T19:13:40.101Z,13.70
2018-03-11T19:16:09.128Z,13.70
2018-03-11T19:18:37.376Z,13.60
2018-03-11T19:21:06.431Z,13.70
2018-03-11T19:23:34.683Z,13.70
2018-03-11T19:26:03.005Z,13.80
2018-03-11T19:28:31.289Z,13.70
2018-03-11T19:30:59.548Z,13.70
2018-03-11T19:33:27.794Z,13.80
2018-03-11T19:35:56.058Z,13.80
2018-03-11T19:38:24.299Z,13.80
2018-03-11T19:40:52.583Z,13.80
2018-03-11T19:43:20.847Z,13.80
2018-03-11T19:45:49.105Z,13.80
2018-03-11T19:48:17.359Z,13.80
2018-03-11T19:50:46.538Z,13.80
2018-03-11T19:53:15.607Z,13.70
2018-03-11T19:55:43.865Z,13.70
2018-03-11T19:58:12.108Z,13.70
2018-03-11T20:00:40.387Z,13.70
2018-03-11T20:03:08.771Z,13.80
2018-03-11T20:05:37.024Z,13.90
2018-03-11T20:08:05.278Z,13.90
2018-03-11T20:10:34.935Z,13.90
2018-03-11T20:13:04.013Z,13.80
2018-03-11T20:15:32.302Z,13.80
2018-03-11T20:18:00.552Z,13.60
2018-03-11T20:20:28.826Z,13.50
2018-03-11T20:22:57.864Z,13.50
2018-03-11T20:25:26.145Z,13.50
2018-03-11T20:27:54.388Z,13.60
2018-03-11T20:30:22.675Z,13.60
2018-03-11T20:32:50.953Z,13.70
2018-03-11T20:35:19.505Z,13.70
2018-03-11T20:37:47.813Z,13.60
2018-03-11T20:40:16.838Z,13.60
2018-03-11T20:42:45.102Z,13.60
2018-03-11T20:45:14.446Z,13.70
2018-03-11T20:47:42.705Z,13.70
2018-03-11T20:50:10.980Z,13.80
2018-03-11T20:52:39.226Z,13.80
2018-03-11T20:55:07.506Z,13.80
2018-03-11T20:57:36.535Z,13.80
2018-03-11T21:00:04.838Z,13.80
2018-03-11T21:02:33.098Z,13.90
2018-03-11T21:05:01.417Z,13.80
2018-03-11T21:07:29.831Z,13.80
2018-03-11T21:09:58.882Z,13.70
2018-03-11T21:12:28.141Z,13.70
2018-03-11T21:14:56.475Z,13.70
2018-03-11T21:17:24.722Z,13.60
2018-03-11T21:19:53.783Z,13.60
2018-03-11T21:22:22.074Z,13.60
2018-03-11T21:24:50.397Z,13.60
2018-03-11T21:27:19.407Z,13.60
2018-03-11T21:29:47.683Z,13.60
2018-03-11T21:32:15.937Z,13.60
2018-03-11T21:34:44.970Z,13.50
2018-03-11T21:37:13.222Z,13.50
2018-03-11T21:39:42.259Z,13.40
2018-03-11T21:42:10.538Z,13.40
2018-03-11T21:44:38.802Z,13.50
2018-03-11T21:47:07.057Z,13.40
2018-03-11T21:49:36.129Z,13.40
2018-03-11T21:52:04.698Z,13.40
2018-03-11T21:54:32.976Z,13.40
2018-03-11T21:57:02.187Z,13.40
2018-03-11T21:59:30.479Z,13.40
2018-03-11T22:01:58.741Z,13.40
2018-03-11T22:04:27.000Z,13.30
2018-03-11T22:06:55.298Z,13.30
2018-03-11T22:09:24.124Z,13.20
2018-03-11T22:11:52.728Z,13.20
2018-03-11T22:14:21.872Z,13.10
2018-03-11T22:16:50.671Z,13.10
2018-03-11T22:19:19.105Z,13.10
2018-03-11T22:21:48.294Z,13.00
2018-03-11T22:24:16.603Z,13.00
2018-03-11T22:26:44.892Z,13.00
2018-03-11T22:29:13.165Z,13.00
2018-03-11T22:31:42.212Z,13.00
2018-03-11T22:34:10.480Z,13.00
2018-03-11T22:36:38.789Z,12.90
2018-03-11T22:39:07.059Z,12.90
2018-03-11T22:41:35.394Z,12.90
2018-03-11T22:44:04.426Z,12.80
2018-03-11T22:46:32.766Z,12.80
2018-03-11T22:49:01.045Z,12.80
2018-03-11T22:51:29.337Z,12.80
2018-03-11T22:53:58.384Z,12.80
2018-03-11T22:56:26.682Z,12.80
2018-03-11T22:58:56.003Z,12.80
2018-03-11T23:01:24.267Z,12.80
2018-03-11T23:03:52.533Z,12.80
2018-03-11T23:06:20.843Z,12.80
2018-03-11T23:08:49.115Z,12.70
2018-03-11T23:11:17.418Z,12.70
2018-03-11T23:13:45.681Z,12.70
2018-03-11T23:16:13.981Z,12.70
2018-03-11T23:18:54.966Z,12.70
2018-03-11T23:21:23.267Z,12.70
2018-03-11T23:23:52.331Z,12.70
2018-03-11T23:26:20.622Z,12.60
2018-03-11T23:28:48.912Z,12.70
2018-03-11T23:31:17.218Z,12.60
2018-03-11T23:33:45.470Z,12.60
2018-03-11T23:36:13.816Z,12.60
2018-03-11T23:38:42.121Z,12.60
2018-03-11T23:41:10.412Z,12.60
2018-03-11T23:43:38.845Z,12.60
2018-03-11T23:46:07.160Z,12.60
2018-03-11T23:48:35.420Z,12.60
2018-03-11T23:51:03.732Z,12.60
2018-03-11T23:53:32.019Z,12.60
2018-03-11T23:56:00.286Z,12.60
2018-03-11T23:58:28.576Z,12.60
